Fort Hood, Texas
Current Conditions -  °F | °C
As of 6:56 PM on Monday 24 Nov 2014 (Local Time) from KHLR Reporting Station
Clear Clear  
Wind Chill: 49°   Ceiling: Unl
Heat Index: 49°   Visibility: 10mi
Dew Point: 34°   Wind: 0mph
Humidity: 56%   Direction: NA
Pressure: 30.1"   Gusts: NA
Location:  31.2151°N, 97.7405°W
Report Text: KHLR 250056Z AUTO 00000KT 10SM CLR 09/01 A3010 RMK AO2 SLP226 T00940011 $
Loading
Personal Weather Stations






























Interactive Weather Map New forecast layout! Learn more

10-Day Weather Forecast

Advertisements
Track Severe Weather on mobile